Terminal Aerodrome Forecast
Issued by NWS

Home | Current Version | Previous Version | Text Only | Print | Product List | Glossary Off
Versions: 1 2 3 4 5 6 7 8 9 10 11 12 13 14 15 16 17 18 19 20 21 22 23

000
FTUS41 KCLE 160900 AAB
TAFFDY
TAF AMD
KFDY 160919Z 1609/1706 31004KT 3SM BR OVC003
      TEMPO 1610/1614 2SM BR VV006
     FM161400 31004KT 4SM BR OVC006
      TEMPO 1614/1615 6SM BR BKN012
     FM161500 34005KT 6SM BR SCT012 OVC025
     FM161600 34006KT P6SM SCT025 BKN045
     FM161700 33006KT P6SM SCT035
     FM170200 26003KT P6SM SKC=

USA.gov is the U.S. government's official web portal to all federal, state and local government web resources and services.